Time;durP1;ratioP1;P1;durP2;ratioP2;P2;SDS_P1;SDS_P2;PMS_P1;PMS_P2;Temp;Humidity;BMP_temperature;BMP_pressure;BME280_temperature;BME280_humidity;BME280_pressure;Samples;Min_cycle;Max_cycle;Signal;HPM_P1;HPM_P2
2022/03/12 00:01:56;;;;;;;0.00;0.00;;;;;19.30;100706.00;;;;5089037;28;20040;-80
2022/03/12 00:04:26;;;;;;;0.00;0.00;;;;;19.30;100694.00;;;;5089209;28;20090;-80
2022/03/12 00:06:57;;;;;;;0.00;0.00;;;;;19.20;100704.00;;;;5093722;28;20043;-80
2022/03/12 00:09:27;;;;;;;0.00;0.00;;;;;19.20;100701.00;;;;5098134;28;20036;-80
2022/03/12 00:12:00;;;;;;;0.00;0.00;;;;;19.20;100705.00;;;;5094492;28;20066;-81
2022/03/12 00:14:32;;;;;;;0.00;0.00;;;;;19.20;100719.00;;;;5099079;28;20047;-81
2022/03/12 00:17:03;;;;;;;0.00;0.00;;;;;19.20;100711.00;;;;5115421;27;20433;-80
2022/03/12 00:19:33;;;;;;;0.00;0.00;;;;;19.20;100727.00;;;;5096907;27;20040;-81
2022/03/12 00:22:04;;;;;;;0.00;0.00;;;;;19.10;100721.00;;;;5095863;28;20048;-81
2022/03/12 00:24:34;;;;;;;0.00;0.00;;;;;19.10;100704.00;;;;5114052;27;20089;-83
2022/03/12 00:27:04;;;;;;;0.00;0.00;;;;;19.10;100719.00;;;;5095805;28;20044;-80
2022/03/12 00:29:35;;;;;;;0.00;0.00;;;;;19.10;100713.00;;;;5094560;28;20036;-80
2022/03/12 00:32:06;;;;;;;;;;;;;19.10;100723.00;;;;5111218;27;20055;-81
2022/03/12 00:34:35;;;;;;;0.00;0.00;;;;;19.10;100735.00;;;;5111507;27;19924;-80
2022/03/12 00:37:05;;;;;;;0.00;0.00;;;;;19.10;100742.00;;;;5078991;28;20055;-80
2022/03/12 00:39:35;;;;;;;0.00;0.00;;;;;19.10;100726.00;;;;5112791;27;20608;-80
2022/03/12 00:42:09;;;;;;;0.00;0.00;;;;;19.10;100721.00;;;;5107601;27;20545;-80
2022/03/12 00:44:38;;;;;;;0.00;0.00;;;;;19.00;100733.00;;;;5110656;27;20044;-82
2022/03/12 00:47:08;;;;;;;0.00;0.00;;;;;19.00;100714.00;;;;5094315;28;20043;-81
2022/03/12 00:49:38;;;;;;;0.00;0.00;;;;;19.00;100726.00;;;;5096221;28;20554;-80
2022/03/12 00:52:08;;;;;;;0.00;0.00;;;;;18.90;100713.00;;;;5095657;28;20097;-80
2022/03/12 00:54:37;;;;;;;0.00;0.00;;;;;18.90;100722.00;;;;5088401;28;20625;-81
2022/03/12 00:57:10;;;;;;;0.00;0.00;;;;;18.90;100732.00;;;;5089074;28;20040;-80
2022/03/12 00:59:44;;;;;;;0.00;0.00;;;;;18.90;100727.00;;;;5088617;28;20068;-80
2022/03/12 01:02:18;;;;;;;0.00;0.00;;;;;18.90;100730.00;;;;5097249;28;20116;-80
2022/03/12 01:04:50;;;;;;;0.00;0.00;;;;;18.80;100723.00;;;;5094263;28;20048;-81
2022/03/12 01:07:20;;;;;;;0.00;0.00;;;;;18.70;100733.00;;;;5086694;28;20048;-79
2022/03/12 01:09:50;;;;;;;0.00;0.00;;;;;18.60;100727.00;;;;5103501;28;20097;-79
2022/03/12 01:12:19;;;;;;;0.00;0.00;;;;;18.60;100744.00;;;;5104058;28;20055;-79
2022/03/12 01:14:49;;;;;;;0.00;0.00;;;;;18.70;100733.00;;;;5087888;28;20044;-79
2022/03/12 01:17:19;;;;;;;0.00;0.00;;;;;18.70;100719.00;;;;5106713;27;20723;-80
2022/03/12 01:19:48;;;;;;;0.00;0.00;;;;;18.70;100735.00;;;;5103079;28;20039;-80
2022/03/12 01:22:20;;;;;;;0.00;0.00;;;;;18.70;100725.00;;;;5105969;28;20036;-80
2022/03/12 01:24:50;;;;;;;0.00;0.00;;;;;18.70;100736.00;;;;5126797;28;20040;-79
2022/03/12 01:27:19;;;;;;;0.00;0.00;;;;;18.70;100739.00;;;;5103645;28;20024;-79
2022/03/12 01:29:49;;;;;;;0.00;0.00;;;;;18.70;100751.00;;;;5130962;28;20034;-80
2022/03/12 01:32:19;;;;;;;0.00;0.00;;;;;18.60;100727.00;;;;5125349;27;20054;-79
2022/03/12 01:34:48;;;;;;;0.00;0.00;;;;;18.60;100733.00;;;;5087701;28;20052;-78
2022/03/12 01:37:19;;;;;;;0.00;0.00;;;;;18.60;100732.00;;;;5104014;28;20059;-79
2022/03/12 01:39:50;;;;;;;0.00;0.00;;;;;18.60;100738.00;;;;5085876;28;20056;-79
2022/03/12 01:42:21;;;;;;;0.00;0.00;;;;;18.60;100721.00;;;;5086565;28;20515;-79
2022/03/12 01:44:50;;;;;;;0.00;0.00;;;;;18.60;100715.00;;;;5086455;28;20048;-79
2022/03/12 01:47:22;;;;;;;0.00;0.00;;;;;18.60;100735.00;;;;5086312;28;20050;-79
2022/03/12 01:49:53;;;;;;;0.00;0.00;;;;;18.50;100732.00;;;;5102675;28;20102;-79
2022/03/12 01:52:25;;;;;;;0.00;0.00;;;;;18.60;100748.00;;;;5086613;28;20142;-78
2022/03/12 01:54:56;;;;;;;0.00;0.00;;;;;18.60;100729.00;;;;5088966;28;20431;-78
2022/03/12 01:57:25;;;;;;;0.00;0.00;;;;;18.60;100726.00;;;;5086307;28;20730;-79
2022/03/12 01:59:54;;;;;;;0.00;0.00;;;;;18.60;100747.00;;;;5085813;28;20041;-79
2022/03/12 02:02:25;;;;;;;0.00;0.00;;;;;18.60;100749.00;;;;5069397;28;20059;-80
2022/03/12 02:04:55;;;;;;;0.00;0.00;;;;;18.60;100735.00;;;;5087159;28;20140;-79
2022/03/12 02:07:24;;;;;;;0.00;0.00;;;;;18.60;100747.00;;;;5102410;28;20056;-79
2022/03/12 02:09:54;;;;;;;0.00;0.00;;;;;18.60;100733.00;;;;5085648;28;21050;-79
2022/03/12 02:12:24;;;;;;;0.00;0.00;;;;;18.60;100735.00;;;;5085943;28;20590;-79
2022/03/12 02:14:54;;;;;;;0.00;0.00;;;;;18.60;100735.00;;;;5086979;28;20040;-79
2022/03/12 02:17:23;;;;;;;0.00;0.00;;;;;18.60;100756.00;;;;5102652;28;20139;-79
2022/03/12 02:19:53;;;;;;;0.00;0.00;;;;;18.50;100744.00;;;;5086021;28;20047;-79
2022/03/12 02:22:22;;;;;;;0.00;0.00;;;;;18.60;100763.00;;;;5087046;28;20045;-78
2022/03/12 02:24:53;;;;;;;0.00;0.00;;;;;18.50;100729.00;;;;5086947;28;20040;-78
2022/03/12 02:27:26;;;;;;;0.00;0.00;;;;;18.50;100738.00;;;;5086639;28;20055;-79
2022/03/12 02:29:59;;;;;;;0.00;0.00;;;;;18.50;100737.00;;;;5085307;28;20415;-79
2022/03/12 02:32:29;;;;;;;0.00;0.00;;;;;18.50;100731.00;;;;5085085;28;20122;-79
2022/03/12 02:35:00;;;;;;;0.00;0.00;;;;;18.40;100744.00;;;;5086032;28;20051;-79
2022/03/12 02:37:33;;;;;;;;;;;;;18.40;100749.00;;;;5085945;28;20055;-78
2022/03/12 02:40:09;;;;;;;0.00;0.00;;;;;18.50;100727.00;;;;5086739;28;19932;-79
2022/03/12 02:42:40;;;;;;;0.00;0.00;;;;;18.50;100735.00;;;;5102857;28;20043;-78
2022/03/12 02:45:10;;;;;;;0.00;0.00;;;;;18.50;100759.00;;;;5087054;28;20533;-79
2022/03/12 02:47:43;;;;;;;0.00;0.00;;;;;18.50;100745.00;;;;5085263;28;20048;-79
2022/03/12 02:50:14;;;;;;;0.00;0.00;;;;;18.50;100740.00;;;;5084878;28;20131;-79
2022/03/12 02:52:44;;;;;;;0.00;0.00;;;;;18.40;100721.00;;;;5102084;28;20048;-79
2022/03/12 02:55:18;;;;;;;0.00;0.00;;;;;18.40;100752.00;;;;5084848;28;20071;-79
2022/03/12 02:57:49;;;;;;;0.00;0.00;;;;;18.30;100735.00;;;;5085026;28;20052;-79
2022/03/12 03:00:20;;;;;;;0.00;0.00;;;;;18.30;100742.00;;;;5085376;28;20097;-78
2022/03/12 03:02:54;;;;;;;0.00;0.00;;;;;18.30;100742.00;;;;5086238;28;20119;-78
2022/03/12 03:05:41;;;;;;;0.00;0.00;;;;;18.30;100740.00;;;;5085008;28;20044;-79
2022/03/12 03:08:15;;;;;;;0.00;0.00;;;;;18.20;100742.00;;;;5086479;28;20584;-79
2022/03/12 03:10:47;;;;;;;0.00;0.00;;;;;18.10;100731.00;;;;5106549;28;20040;-78
2022/03/12 03:13:29;;;;;;;0.00;0.00;;;;;18.10;100713.00;;;;5106074;28;20138;-79
2022/03/12 03:16:15;;;;;;;0.00;0.00;;;;;18.00;100726.00;;;;5105688;28;20058;-79
2022/03/12 03:18:51;;;;;;;0.00;0.00;;;;;18.00;100753.00;;;;5106057;28;20584;-79
2022/03/12 03:21:24;;;;;;;0.00;0.00;;;;;17.90;100721.00;;;;5089067;28;20051;-79
2022/03/12 03:23:55;;;;;;;0.00;0.00;;;;;17.80;100725.00;;;;5089370;28;20035;-79
2022/03/12 03:26:39;;;;;;;0.00;0.00;;;;;17.80;100749.00;;;;5090682;28;20414;-78
2022/03/12 03:29:09;;;;;;;0.00;0.00;;;;;17.80;100742.00;;;;5088996;28;20036;-79
2022/03/12 03:31:42;;;;;;;0.00;0.00;;;;;17.80;100708.00;;;;5090674;28;20035;-78
2022/03/12 03:34:12;;;;;;;0.00;0.00;;;;;17.80;100740.00;;;;5072601;28;20442;-78
2022/03/12 03:36:42;;;;;;;0.00;0.00;;;;;17.80;100729.00;;;;5105802;28;20107;-78
2022/03/12 03:39:11;;;;;;;0.00;0.00;;;;;17.80;100725.00;;;;5088530;28;20430;-79
2022/03/12 03:41:42;;;;;;;0.00;0.00;;;;;17.80;100737.00;;;;5088760;28;20077;-79
2022/03/12 03:44:15;;;;;;;0.00;0.00;;;;;17.70;100728.00;;;;5090016;28;20119;-79
2022/03/12 03:46:45;;;;;;;0.00;0.00;;;;;17.70;100723.00;;;;5088235;28;20456;-79
2022/03/12 03:49:15;;;;;;;0.00;0.00;;;;;17.70;100729.00;;;;5088688;28;20486;-79
2022/03/12 03:51:45;;;;;;;0.00;0.00;;;;;17.60;100714.00;;;;5105480;28;20040;-79
2022/03/12 03:54:15;;;;;;;0.00;0.00;;;;;17.60;100708.00;;;;5088049;28;20070;-78
2022/03/12 03:56:44;;;;;;;0.00;0.00;;;;;17.70;100723.00;;;;5089519;28;20040;-79
2022/03/12 03:59:14;;;;;;;0.00;0.00;;;;;17.70;100728.00;;;;5090019;28;20039;-78
2022/03/12 04:01:45;;;;;;;0.00;0.00;;;;;17.70;100714.00;;;;5088202;28;20052;-78
2022/03/12 04:04:14;;;;;;;;;;;;;17.70;100717.00;;;;5088844;28;20071;-78
2022/03/12 04:06:44;;;;;;;0.00;0.00;;;;;17.70;100722.00;;;;5105117;28;19928;-78
2022/03/12 04:09:13;;;;;;;0.00;0.00;;;;;17.70;100710.00;;;;5089450;28;20047;-79
2022/03/12 04:11:43;;;;;;;0.00;0.00;;;;;17.70;100717.00;;;;5089410;28;20036;-78
2022/03/12 04:14:12;;;;;;;0.00;0.00;;;;;17.60;100700.00;;;;5088366;28;20047;-78
2022/03/12 04:16:45;;;;;;;0.00;0.00;;;;;17.60;100702.00;;;;5104598;28;20471;-79
2022/03/12 04:19:16;;;;;;;0.00;0.00;;;;;17.60;100679.00;;;;5089123;28;20051;-78
2022/03/12 04:21:45;;;;;;;0.00;0.00;;;;;17.60;100690.00;;;;5087882;28;20052;-78
2022/03/12 04:24:15;;;;;;;0.00;0.00;;;;;17.50;100701.00;;;;5087915;28;20040;-78
2022/03/12 04:26:45;;;;;;;0.00;0.00;;;;;17.40;100684.00;;;;5090300;28;20046;-78
2022/03/12 04:29:17;;;;;;;0.00;0.00;;;;;17.40;100691.00;;;;5104509;28;20097;-78
2022/03/12 04:31:49;;;;;;;0.00;0.00;;;;;17.40;100705.00;;;;5089570;28;20051;-78
2022/03/12 04:34:20;;;;;;;0.00;0.00;;;;;17.40;100682.00;;;;5088927;28;20066;-78
2022/03/12 04:36:49;;;;;;;0.00;0.00;;;;;17.40;100685.00;;;;5089135;28;20047;-78
2022/03/12 04:39:20;;;;;;;0.00;0.00;;;;;17.40;100705.00;;;;5087691;28;20036;-78
2022/03/12 04:41:50;;;;;;;0.00;0.00;;;;;17.40;100681.00;;;;5088724;28;20545;-78
2022/03/12 04:44:20;;;;;;;0.00;0.00;;;;;17.40;100704.00;;;;5088519;28;20427;-78
2022/03/12 04:46:49;;;;;;;0.00;0.00;;;;;17.40;100678.00;;;;5088695;28;20054;-78
2022/03/12 04:49:20;;;;;;;0.00;0.00;;;;;17.30;100700.00;;;;5104451;28;20223;-78
2022/03/12 04:51:51;;;;;;;0.00;0.00;;;;;17.30;100686.00;;;;5089422;28;20101;-78
2022/03/12 04:54:21;;;;;;;0.00;0.00;;;;;17.30;100694.00;;;;5104221;28;20517;-78
2022/03/12 04:56:51;;;;;;;0.00;0.00;;;;;17.20;100691.00;;;;5087603;28;20044;-78
2022/03/12 04:59:21;;;;;;;0.00;0.00;;;;;17.20;100665.00;;;;5070253;28;20048;-78
2022/03/12 05:01:50;;;;;;;0.00;0.00;;;;;17.20;100696.00;;;;5088115;28;20044;-78
2022/03/12 05:04:20;;;;;;;0.00;0.00;;;;;17.10;100691.00;;;;5103899;28;20056;-78
2022/03/12 05:06:50;;;;;;;0.00;0.00;;;;;17.00;100698.00;;;;5103606;28;20134;-78
2022/03/12 05:09:20;;;;;;;0.00;0.00;;;;;16.90;100696.00;;;;5103376;28;20051;-78
2022/03/12 05:11:50;;;;;;;0.00;0.00;;;;;16.80;100690.00;;;;5103503;28;20052;-77
2022/03/12 05:14:19;;;;;;;0.00;0.00;;;;;16.70;100687.00;;;;5088154;28;20278;-78
2022/03/12 05:16:50;;;;;;;0.00;0.00;;;;;16.60;100699.00;;;;5086406;28;20074;-78
2022/03/12 05:19:20;;;;;;;0.00;0.00;;;;;16.50;100695.00;;;;5088528;28;20043;-78
2022/03/12 05:21:49;;;;;;;0.00;0.00;;;;;16.40;100681.00;;;;5103171;28;20062;-78
2022/03/12 05:24:19;;;;;;;0.00;0.00;;;;;16.40;100680.00;;;;5103489;28;20444;-78
2022/03/12 05:26:49;;;;;;;0.00;0.00;;;;;16.30;100689.00;;;;5085919;28;20506;-78
2022/03/12 05:29:21;;;;;;;0.00;0.00;;;;;16.20;100697.00;;;;5088067;28;20044;-78
2022/03/12 05:31:52;;;;;;;0.00;0.00;;;;;16.20;100682.00;;;;5102724;28;20526;-78
2022/03/12 05:34:25;;;;;;;0.00;0.00;;;;;16.10;100671.00;;;;5088123;28;20071;-78
2022/03/12 05:36:57;;;;;;;0.00;0.00;;;;;16.00;100690.00;;;;5102870;28;20040;-78
2022/03/12 05:39:26;;;;;;;0.00;0.00;;;;;15.90;100679.00;;;;5086302;28;20047;-79
2022/03/12 05:41:58;;;;;;;0.00;0.00;;;;;15.90;100683.00;;;;5087458;28;20035;-78
2022/03/12 05:44:28;;;;;;;0.00;0.00;;;;;15.80;100672.00;;;;5103469;28;20048;-79
2022/03/12 05:46:57;;;;;;;0.00;0.00;;;;;15.70;100676.00;;;;5086712;28;20036;-78
2022/03/12 05:49:27;;;;;;;0.00;0.00;;;;;15.60;100702.00;;;;5103055;28;20120;-77
2022/03/12 05:51:58;;;;;;;0.00;0.00;;;;;15.70;100679.00;;;;5086359;28;20175;-78
2022/03/12 05:54:28;;;;;;;0.00;0.00;;;;;15.70;100681.00;;;;5087423;28;20048;-78
2022/03/12 05:56:59;;;;;;;0.00;0.00;;;;;15.70;100685.00;;;;5103054;28;20051;-78
2022/03/12 05:59:29;;;;;;;0.00;0.00;;;;;15.70;100695.00;;;;5086121;28;20094;-78
2022/03/12 06:01:58;;;;;;;0.00;0.00;;;;;15.70;100679.00;;;;5087667;28;20043;-78
2022/03/12 06:04:28;;;;;;;0.00;0.00;;;;;15.60;100677.00;;;;5086220;28;20539;-82
2022/03/12 06:06:57;;;;;;;0.00;0.00;;;;;15.50;100658.00;;;;5102683;28;20055;-79
2022/03/12 06:09:27;;;;;;;0.10;0.10;;;;;15.50;100680.00;;;;5086043;28;20044;-78
2022/03/12 06:11:58;;;;;;;0.00;0.00;;;;;15.50;100683.00;;;;5103365;28;20048;-79
2022/03/12 06:14:28;;;;;;;0.00;0.00;;;;;15.60;100660.00;;;;5087139;28;20040;-79
2022/03/12 06:16:57;;;;;;;0.00;0.00;;;;;15.60;100686.00;;;;5085468;28;20063;-79
2022/03/12 06:19:29;;;;;;;0.00;0.00;;;;;15.60;100655.00;;;;5086916;28;20048;-79
2022/03/12 06:22:05;;;;;;;0.00;0.00;;;;;15.60;100659.00;;;;5101560;28;20052;-79
2022/03/12 06:24:40;;;;;;;0.00;0.00;;;;;15.50;100682.00;;;;5086841;28;20134;-79
2022/03/12 06:27:10;;;;;;;0.00;0.00;;;;;15.50;100674.00;;;;5085497;28;20083;-78
2022/03/12 06:29:39;;;;;;;0.00;0.00;;;;;15.50;100679.00;;;;5087352;28;20517;-79
2022/03/12 06:32:11;;;;;;;0.00;0.00;;;;;15.50;100674.00;;;;5085804;28;20044;-79
2022/03/12 06:34:41;;;;;;;0.00;0.00;;;;;15.50;100673.00;;;;5085434;28;20050;-79
2022/03/12 06:37:12;;;;;;;0.00;0.00;;;;;15.50;100673.00;;;;5069680;28;20113;-78
2022/03/12 06:39:42;;;;;;;0.00;0.00;;;;;15.50;100656.00;;;;5086653;28;20036;-79
2022/03/12 06:42:11;;;;;;;0.00;0.00;;;;;15.50;100670.00;;;;5085566;28;20044;-78
2022/03/12 06:44:43;;;;;;;0.22;0.20;;;;;15.50;100642.00;;;;5084825;28;20500;-79
2022/03/12 06:47:13;;;;;;;0.00;0.00;;;;;15.60;100652.00;;;;5102118;28;20134;-79
2022/03/12 06:49:42;;;;;;;0.00;0.00;;;;;15.50;100660.00;;;;5068533;28;20044;-78
2022/03/12 06:52:13;;;;;;;0.00;0.00;;;;;15.50;100654.00;;;;5101683;28;20072;-80
2022/03/12 06:54:43;;;;;;;0.00;0.00;;;;;15.50;100664.00;;;;5086550;28;20040;-79
2022/03/12 06:57:13;;;;;;;0.00;0.00;;;;;15.50;100630.00;;;;5102062;28;20534;-78
2022/03/12 06:59:42;;;;;;;0.00;0.00;;;;;15.40;100654.00;;;;5101986;28;20495;-79
2022/03/12 07:02:11;;;;;;;0.00;0.00;;;;;15.30;100673.00;;;;5102240;28;20048;-80
2022/03/12 07:04:41;;;;;;;0.00;0.00;;;;;15.20;100664.00;;;;5086536;28;20066;-79
2022/03/12 07:07:11;;;;;;;0.00;0.00;;;;;15.30;100660.00;;;;5085497;28;20051;-79
2022/03/12 07:09:41;;;;;;;0.00;0.00;;;;;15.40;100662.00;;;;5086359;28;20047;-79
2022/03/12 07:12:12;;;;;;;0.00;0.00;;;;;15.50;100656.00;;;;5085135;28;20048;-79
2022/03/12 07:14:41;;;;;;;0.00;0.00;;;;;15.40;100685.00;;;;5084681;28;20048;-79
2022/03/12 07:17:12;;;;;;;0.00;0.00;;;;;15.40;100678.00;;;;5085039;28;20086;-78
2022/03/12 07:19:43;;;;;;;0.00;0.00;;;;;15.40;100660.00;;;;5086391;28;20040;-79
2022/03/12 07:22:13;;;;;;;0.00;0.00;;;;;15.30;100677.00;;;;5085445;28;20036;-80
2022/03/12 07:24:43;;;;;;;0.00;0.00;;;;;15.30;100678.00;;;;5085995;28;20091;-80
2022/03/12 07:27:12;;;;;;;0.00;0.00;;;;;15.20;100660.00;;;;5084987;28;20042;-79
2022/03/12 07:29:42;;;;;;;0.00;0.00;;;;;15.20;100686.00;;;;5102148;28;20082;-80
2022/03/12 07:32:12;;;;;;;0.00;0.00;;;;;15.20;100692.00;;;;5102017;28;20044;-79
2022/03/12 07:34:41;;;;;;;0.00;0.00;;;;;15.10;100666.00;;;;5068499;28;20056;-80
2022/03/12 07:37:12;;;;;;;0.00;0.00;;;;;15.10;100671.00;;;;5086949;28;20395;-79
2022/03/12 07:39:42;;;;;;;0.00;0.00;;;;;15.00;100686.00;;;;5084648;28;20089;-79
2022/03/12 07:42:12;;;;;;;0.00;0.00;;;;;15.00;100657.00;;;;5100712;28;20063;-79
2022/03/12 07:44:41;;;;;;;0.00;0.00;;;;;15.00;100694.00;;;;5085974;28;20578;-79
2022/03/12 07:47:11;;;;;;;0.00;0.00;;;;;15.00;100688.00;;;;5084658;28;20052;-79
2022/03/12 07:49:41;;;;;;;0.00;0.00;;;;;15.00;100697.00;;;;5085088;28;20093;-79
2022/03/12 07:52:16;;;;;;;0.00;0.00;;;;;14.90;100688.00;;;;5101591;28;20111;-79
2022/03/12 07:54:45;;;;;;;0.00;0.00;;;;;14.90;100673.00;;;;5086917;28;20063;-79
2022/03/12 07:57:16;;;;;;;0.00;0.00;;;;;14.90;100688.00;;;;5088716;28;20044;-79
2022/03/12 07:59:45;;;;;;;0.00;0.00;;;;;14.90;100703.00;;;;5088450;28;20411;-79
2022/03/12 08:02:16;;;;;;;0.00;0.00;;;;;14.90;100682.00;;;;5104833;28;20134;-80
2022/03/12 08:04:47;;;;;;;0.00;0.00;;;;;14.90;100680.00;;;;5104922;28;20054;-79
2022/03/12 08:07:16;;;;;;;0.00;0.00;;;;;14.90;100696.00;;;;5087987;28;20048;-79
2022/03/12 08:09:46;;;;;;;0.00;0.00;;;;;14.90;100679.00;;;;5088070;28;20044;-79
2022/03/12 08:12:17;;;;;;;0.00;0.00;;;;;14.90;100668.00;;;;5104588;28;20036;-79
2022/03/12 08:14:47;;;;;;;0.00;0.00;;;;;14.90;100681.00;;;;5105034;28;20093;-79
2022/03/12 08:17:19;;;;;;;0.00;0.00;;;;;14.80;100697.00;;;;5089272;28;20068;-79
2022/03/12 08:19:49;;;;;;;0.00;0.00;;;;;14.80;100701.00;;;;5105050;28;20051;-80
2022/03/12 08:22:19;;;;;;;0.00;0.00;;;;;14.80;100683.00;;;;5087598;28;20048;-80
2022/03/12 08:24:49;;;;;;;0.00;0.00;;;;;14.80;100701.00;;;;5088029;28;20052;-78
2022/03/12 08:27:19;;;;;;;0.00;0.00;;;;;14.80;100684.00;;;;5088495;28;20060;-80
2022/03/12 08:29:51;;;;;;;0.00;0.00;;;;;14.80;100707.00;;;;5089083;28;20142;-79
2022/03/12 08:32:20;;;;;;;0.00;0.00;;;;;14.80;100692.00;;;;5103875;28;20463;-79
2022/03/12 08:34:50;;;;;;;0.00;0.00;;;;;14.80;100659.00;;;;5088222;28;20055;-79
2022/03/12 08:37:23;;;;;;;0.00;0.00;;;;;14.60;100689.00;;;;5087226;28;20127;-79
2022/03/12 08:39:53;;;;;;;0.00;0.00;;;;;14.70;100688.00;;;;5089504;28;20044;-79
2022/03/12 08:42:24;;;;;;;0.00;0.00;;;;;14.60;100683.00;;;;5087321;28;20476;-79
2022/03/12 08:44:54;;;;;;;0.00;0.00;;;;;14.60;100700.00;;;;5087783;28;20048;-79
2022/03/12 08:47:26;;;;;;;0.00;0.00;;;;;14.60;100702.00;;;;5087526;28;20055;-80
2022/03/12 08:49:56;;;;;;;0.00;0.00;;;;;14.50;100687.00;;;;5089006;28;20044;-79
2022/03/12 08:52:26;;;;;;;0.00;0.00;;;;;14.60;100710.00;;;;5086932;28;20040;-78
2022/03/12 08:54:55;;;;;;;0.00;0.00;;;;;14.60;100703.00;;;;5086845;28;20040;-81
2022/03/12 08:57:24;;;;;;;0.00;0.00;;;;;14.50;100700.00;;;;5103849;28;20570;-80
2022/03/12 08:59:54;;;;;;;0.00;0.00;;;;;14.60;100685.00;;;;5088433;28;20051;-78
2022/03/12 09:02:23;;;;;;;0.00;0.00;;;;;14.60;100693.00;;;;5103295;28;20052;-80
2022/03/12 09:04:53;;;;;;;0.00;0.00;;;;;14.50;100726.00;;;;5088275;28;20708;-78
2022/03/12 09:07:23;;;;;;;0.00;0.00;;;;;14.40;100698.00;;;;5087510;28;20040;-80
2022/03/12 09:09:54;;;;;;;0.00;0.00;;;;;14.40;100689.00;;;;5103048;28;20052;-80
2022/03/12 09:12:25;;;;;;;0.00;0.00;;;;;14.40;100735.00;;;;5088676;28;20674;-79
2022/03/12 09:14:55;;;;;;;0.00;0.00;;;;;14.30;100730.00;;;;5087133;28;20040;-79
2022/03/12 09:17:26;;;;;;;;;;;;;14.30;100738.00;;;;5088282;28;20062;-78
2022/03/12 09:19:55;;;;;;;0.00;0.00;;;;;14.30;100712.00;;;;5084740;28;20332;-79
2022/03/12 09:22:25;;;;;;;0.00;0.00;;;;;14.20;100728.00;;;;5085813;28;20066;-81
2022/03/12 09:24:54;;;;;;;0.00;0.00;;;;;14.20;100732.00;;;;5088065;28;20135;-80
2022/03/12 09:27:24;;;;;;;0.00;0.00;;;;;14.10;100732.00;;;;5086953;28;20128;-80
2022/03/12 09:29:53;;;;;;;0.00;0.00;;;;;14.10;100741.00;;;;5086630;28;20052;-80
2022/03/12 09:32:23;;;;;;;0.00;0.00;;;;;14.10;100752.00;;;;5103729;28;20131;-79
2022/03/12 09:34:53;;;;;;;0.00;0.00;;;;;14.20;100725.00;;;;5086526;28;20465;-80
2022/03/12 09:37:23;;;;;;;0.00;0.00;;;;;14.20;100717.00;;;;5087078;28;20048;-79
2022/03/12 09:39:52;;;;;;;0.00;0.00;;;;;14.30;100730.00;;;;5104572;28;20566;-80
2022/03/12 09:42:23;;;;;;;0.00;0.00;;;;;14.30;100750.00;;;;5087348;28;20056;-79
2022/03/12 09:44:52;;;;;;;0.00;0.00;;;;;14.30;100760.00;;;;5086596;28;20430;-78
2022/03/12 09:47:22;;;;;;;0.00;0.00;;;;;14.40;100768.00;;;;5086114;28;20089;-79
2022/03/12 09:49:52;;;;;;;0.00;0.00;;;;;14.40;100751.00;;;;5085922;28;20058;-81
2022/03/12 09:52:22;;;;;;;0.00;0.00;;;;;14.50;100745.00;;;;5084373;28;20157;-80
2022/03/12 09:54:51;;;;;;;0.00;0.00;;;;;14.50;100729.00;;;;5086319;28;20146;-80
2022/03/12 09:57:21;;;;;;;0.00;0.00;;;;;14.60;100750.00;;;;5086448;28;20048;-81
2022/03/12 09:59:50;;;;;;;0.00;0.00;;;;;14.70;100730.00;;;;5086822;28;20036;-80
2022/03/12 10:02:20;;;;;;;0.00;0.00;;;;;14.80;100749.00;;;;5085849;28;20051;-79
2022/03/12 10:04:50;;;;;;;0.00;0.00;;;;;14.90;100768.00;;;;5102453;28;20048;-79
2022/03/12 10:07:20;;;;;;;0.00;0.00;;;;;15.00;100783.00;;;;5085665;28;20096;-78
2022/03/12 10:09:50;;;;;;;0.00;0.00;;;;;15.10;100762.00;;;;5086798;28;20446;-79
2022/03/12 10:12:20;;;;;;;0.00;0.00;;;;;15.20;100785.00;;;;5087337;28;20065;-80
2022/03/12 10:14:49;;;;;;;0.00;0.00;;;;;15.30;100760.00;;;;5102657;28;20075;-80
2022/03/12 10:17:19;;;;;;;0.00;0.00;;;;;15.40;100781.00;;;;5085592;28;20072;-81
2022/03/12 10:19:48;;;;;;;0.00;0.00;;;;;15.50;100757.00;;;;5085488;28;20056;-80
2022/03/12 10:22:19;;;;;;;0.00;0.00;;;;;15.60;100792.00;;;;5086880;28;20050;-80
2022/03/12 10:24:49;;;;;;;0.00;0.00;;;;;15.70;100763.00;;;;5085369;28;20053;-80
2022/03/12 10:27:18;;;;;;;0.00;0.00;;;;;15.90;100793.00;;;;5101894;28;20419;-79
2022/03/12 10:29:47;;;;;;;0.00;0.00;;;;;16.10;100791.00;;;;5085528;28;20040;-80
2022/03/12 10:32:24;;;;;;;0.45;0.45;;;;;16.40;100792.00;;;;5085576;28;20048;-79
2022/03/12 10:34:56;;;;;;;0.00;0.00;;;;;16.60;100780.00;;;;5085045;28;20055;-80
2022/03/12 10:37:31;;;;;;;0.00;0.00;;;;;17.30;100787.00;;;;5085619;28;20043;-79
2022/03/12 10:40:18;;;;;;;0.00;0.00;;;;;17.10;100763.00;;;;5085527;28;20043;-79
2022/03/12 10:42:53;;;;;;;0.00;0.00;;;;;17.30;100804.00;;;;5084748;28;20102;-80
2022/03/12 10:45:31;;;;;;;0.00;0.00;;;;;17.90;100797.00;;;;5102197;28;20043;-80
2022/03/12 10:48:04;;;;;;;0.00;0.00;;;;;18.40;100784.00;;;;5102258;28;20048;-80
2022/03/12 10:50:45;;;;;;;0.00;0.00;;;;;21.10;100698.00;;;;5085010;28;20498;-80
2022/03/12 10:53:15;;;;;;;0.00;0.00;;;;;19.90;100728.00;;;;5085425;28;20048;-80
2022/03/12 10:55:50;;;;;;;0.00;0.00;;;;;21.10;100758.00;;;;5084752;28;20566;-77
2022/03/12 10:58:25;;;;;;;0.00;0.00;;;;;20.50;100604.00;;;;5068966;28;20126;-78
2022/03/12 11:01:00;;;;;;;0.00;0.00;;;;;24.80;100767.00;;;;5102356;28;20044;-80
2022/03/12 11:03:37;;;;;;;0.00;0.00;;;;;27.90;100590.00;;;;5086792;28;20139;-78
2022/03/12 11:06:08;;;;;;;0.00;0.00;;;;;27.00;100586.00;;;;5101987;28;20584;-79
2022/03/12 11:08:38;;;;;;;0.00;0.00;;;;;29.00;100593.00;;;;5086322;28;20047;-77
2022/03/12 11:11:14;;;;;;;0.00;0.00;;;;;30.10;100623.00;;;;5085195;28;20044;-77
2022/03/12 11:13:47;;;;;;;0.00;0.00;;;;;30.40;100633.00;;;;5085916;28;20048;-78
2022/03/12 11:16:27;;;;;;;0.00;0.00;;;;;30.60;100644.00;;;;5084748;28;20121;-78
2022/03/12 11:19:07;;;;;;;0.00;0.00;;;;;30.70;100637.00;;;;5086128;28;20120;-78
2022/03/12 11:21:43;;;;;;;0.00;0.00;;;;;31.10;100653.00;;;;5101197;28;20156;-77
2022/03/12 11:24:23;;;;;;;0.00;0.00;;;;;31.00;100672.00;;;;5086225;28;20048;-79
2022/03/12 11:26:58;;;;;;;0.00;0.00;;;;;29.40;100701.00;;;;5085728;28;20067;-81
2022/03/12 11:29:34;;;;;;;0.00;0.00;;;;;25.40;100786.00;;;;5086911;28;20420;-79
2022/03/12 11:32:05;;;;;;;0.00;0.00;;;;;24.20;100832.00;;;;5089942;28;20498;-79
2022/03/12 11:34:41;;;;;;;0.00;0.00;;;;;23.20;100805.00;;;;5089174;28;20052;-79
2022/03/12 11:37:20;;;;;;;0.00;0.00;;;;;23.50;100810.00;;;;5090245;28;20513;-79
2022/03/12 11:39:52;;;;;;;0.00;0.00;;;;;25.70;100809.00;;;;5088558;28;20396;-82
2022/03/12 11:42:33;;;;;;;0.00;0.00;;;;;24.50;100844.00;;;;5105442;28;20137;-79
2022/03/12 11:45:09;;;;;;;0.00;0.00;;;;;26.90;100726.00;;;;5089903;28;20032;-79
2022/03/12 11:47:40;;;;;;;0.00;0.00;;;;;29.80;100687.00;;;;5089929;28;20066;-80
2022/03/12 11:50:15;;;;;;;0.00;0.00;;;;;30.70;100704.00;;;;5089963;28;20040;-79
2022/03/12 11:52:47;;;;;;;0.00;0.00;;;;;31.40;100701.00;;;;5089793;28;20036;-79
2022/03/12 11:55:22;;;;;;;0.00;0.00;;;;;32.20;100716.00;;;;5090163;28;20047;-80
2022/03/12 11:57:51;;;;;;;0.35;0.35;;;;;30.70;100759.00;;;;5090212;28;20048;-79
2022/03/12 12:00:29;;;;;;;0.00;0.00;;;;;31.60;100721.00;;;;5089885;28;20040;-80
2022/03/12 12:02:58;;;;;;;0.00;0.00;;;;;31.40;100712.00;;;;5089739;28;20066;-79
2022/03/12 12:05:30;;;;;;;0.00;0.00;;;;;31.20;100850.00;;;;5089711;28;20044;-79
2022/03/12 12:08:03;;;;;;;0.00;0.00;;;;;30.60;100707.00;;;;5089520;28;20806;-80
2022/03/12 12:10:35;;;;;;;0.00;0.00;;;;;30.70;100715.00;;;;5089774;28;20366;-80
2022/03/12 12:13:05;;;;;;;0.20;0.10;;;;;31.30;100733.00;;;;5088090;28;20113;-79
2022/03/12 12:15:36;;;;;;;0.00;0.00;;;;;32.30;100738.00;;;;5104506;28;20055;-79
2022/03/12 12:18:09;;;;;;;0.00;0.00;;;;;32.00;100738.00;;;;5105292;28;20047;-80
2022/03/12 12:20:41;;;;;;;0.00;0.00;;;;;31.50;100739.00;;;;5106564;28;20089;-79
2022/03/12 12:23:17;;;;;;;0.00;0.00;;;;;31.80;100736.00;;;;5109152;28;20044;-78
2022/03/12 12:25:50;;;;;;;0.00;0.00;;;;;31.50;100743.00;;;;5125689;28;20111;-79
2022/03/12 12:28:22;;;;;;;3.20;2.03;;;;;31.30;100764.00;;;;5111403;28;20036;-81